createdAt,value
2018-09-09T00:00:46.494Z,99.90
2018-09-09T00:03:15.068Z,99.90
2018-09-09T00:05:43.515Z,99.90
2018-09-09T00:08:11.959Z,99.90
2018-09-09T00:10:40.589Z,99.90
2018-09-09T00:13:09.026Z,99.90
2018-09-09T00:15:37.506Z,99.90
2018-09-09T00:18:09.053Z,99.90
2018-09-09T00:20:37.482Z,99.90
2018-09-09T00:23:06.294Z,99.90
2018-09-09T00:25:35.297Z,99.90
2018-09-09T00:28:04.201Z,99.90
2018-09-09T00:33:03.364Z,99.90
2018-09-09T00:35:32.221Z,99.90
2018-09-09T00:38:00.787Z,99.90
2018-09-09T00:40:29.259Z,99.90
2018-09-09T00:42:57.692Z,99.90
2018-09-09T00:45:26.115Z,99.90
2018-09-09T00:47:54.553Z,99.90
2018-09-09T00:50:28.305Z,99.90
2018-09-09T00:53:02.251Z,99.90
2018-09-09T00:55:30.952Z,99.90
2018-09-09T00:57:59.362Z,99.90
2018-09-09T01:00:33.264Z,99.90
2018-09-09T01:03:01.680Z,99.90
2018-09-09T01:05:30.078Z,99.90
2018-09-09T01:07:58.523Z,99.90
2018-09-09T01:10:27.038Z,99.90
2018-09-09T01:12:55.502Z,99.90
2018-09-09T01:15:23.953Z,99.90
2018-09-09T01:17:52.609Z,99.90
2018-09-09T01:20:21.297Z,99.90
2018-09-09T01:22:49.759Z,99.90
2018-09-09T01:25:18.204Z,99.90
2018-09-09T01:27:46.637Z,99.90
2018-09-09T01:30:15.053Z,99.90
2018-09-09T01:32:43.548Z,99.90
2018-09-09T01:35:12.079Z,99.90
2018-09-09T01:37:40.576Z,99.90
2018-09-09T01:40:09.164Z,99.90
2018-09-09T01:42:37.606Z,99.90
2018-09-09T01:45:06.270Z,99.90
2018-09-09T01:47:34.692Z,99.90
2018-09-09T01:50:03.178Z,99.90
2018-09-09T01:52:31.625Z,99.90
2018-09-09T01:55:00.064Z,99.90
2018-09-09T01:57:28.521Z,99.90
2018-09-09T01:59:57.027Z,99.90
2018-09-09T02:02:25.488Z,99.90
2018-09-09T02:04:53.912Z,99.90
2018-09-09T02:07:22.317Z,99.90
2018-09-09T02:09:50.764Z,99.90
2018-09-09T02:12:19.225Z,99.90
2018-09-09T02:14:47.678Z,99.90
2018-09-09T02:17:16.186Z,99.90
2018-09-09T02:19:44.640Z,99.90
2018-09-09T02:22:13.112Z,99.90
2018-09-09T02:24:41.523Z,99.90
2018-09-09T02:27:09.962Z,99.90
2018-09-09T02:29:38.358Z,99.90
2018-09-09T02:32:06.898Z,99.90
2018-09-09T02:34:35.315Z,99.90
2018-09-09T02:37:03.843Z,99.90
2018-09-09T02:39:32.338Z,99.90
2018-09-09T02:42:00.784Z,99.90
2018-09-09T02:44:29.237Z,99.90
2018-09-09T02:46:57.642Z,99.90
2018-09-09T02:49:26.082Z,99.90
2018-09-09T02:51:54.574Z,99.90
2018-09-09T02:54:22.977Z,99.90
2018-09-09T02:56:51.367Z,99.90
2018-09-09T02:59:19.784Z,99.90
2018-09-09T03:01:48.344Z,99.90
2018-09-09T03:04:16.777Z,99.90
2018-09-09T03:06:45.188Z,99.90
2018-09-09T03:09:13.594Z,99.90
2018-09-09T03:11:41.984Z,99.90
2018-09-09T03:14:10.374Z,99.90
2018-09-09T03:16:38.789Z,99.90
2018-09-09T03:19:07.204Z,99.90
2018-09-09T03:21:35.600Z,99.90
2018-09-09T03:24:04.018Z,99.90
2018-09-09T03:26:32.397Z,99.90
2018-09-09T03:29:00.790Z,99.90
2018-09-09T03:31:29.202Z,99.90
2018-09-09T03:33:57.634Z,99.90
2018-09-09T03:36:26.050Z,99.90
2018-09-09T03:38:54.469Z,99.90
2018-09-09T03:41:23.845Z,99.90
2018-09-09T03:43:52.229Z,99.90
2018-09-09T03:46:20.617Z,99.90
2018-09-09T03:48:49.436Z,99.90
2018-09-09T03:51:17.889Z,99.90
2018-09-09T03:53:46.555Z,99.90
2018-09-09T03:56:14.963Z,99.90
2018-09-09T03:58:43.361Z,99.90
2018-09-09T04:01:11.816Z,99.90
2018-09-09T04:03:40.218Z,99.90
2018-09-09T04:06:08.617Z,99.90
2018-09-09T04:08:37.185Z,99.90
2018-09-09T04:11:09.649Z,99.90
2018-09-09T04:13:39.791Z,99.90
2018-09-09T04:16:08.752Z,99.90
2018-09-09T04:18:37.267Z,99.90
2018-09-09T04:21:05.763Z,99.90
2018-09-09T04:23:34.175Z,99.90
2018-09-09T04:26:02.625Z,99.90
2018-09-09T04:28:31.018Z,99.90
2018-09-09T04:30:59.485Z,99.90
2018-09-09T04:33:27.838Z,99.90
2018-09-09T04:35:56.228Z,99.90
2018-09-09T04:38:24.727Z,99.90
2018-09-09T04:40:53.117Z,99.90
2018-09-09T04:43:21.513Z,99.90
2018-09-09T04:45:50.353Z,99.90
2018-09-09T04:48:18.746Z,99.90
2018-09-09T04:50:47.153Z,99.90
2018-09-09T04:53:15.586Z,99.90
2018-09-09T04:55:43.982Z,99.90
2018-09-09T04:58:12.390Z,99.90
2018-09-09T05:00:40.794Z,99.90
2018-09-09T05:03:09.182Z,99.90
2018-09-09T05:05:37.610Z,99.90
2018-09-09T05:08:06.056Z,99.90
2018-09-09T05:10:34.451Z,99.90
2018-09-09T05:13:02.874Z,99.90
2018-09-09T05:15:31.324Z,99.90
2018-09-09T05:17:59.747Z,99.90
2018-09-09T05:20:28.182Z,99.90
2018-09-09T05:22:56.550Z,99.90
2018-09-09T05:25:25.057Z,99.90
2018-09-09T05:27:53.449Z,99.90
2018-09-09T05:30:21.872Z,99.90
2018-09-09T05:32:50.288Z,99.90
2018-09-09T05:35:18.908Z,99.90
2018-09-09T05:37:47.312Z,99.90
2018-09-09T05:40:15.711Z,99.90
2018-09-09T05:42:44.109Z,99.90
2018-09-09T05:45:12.501Z,99.90
2018-09-09T05:47:40.987Z,99.90
2018-09-09T05:50:09.486Z,99.90
2018-09-09T05:52:37.894Z,99.90
2018-09-09T05:55:06.758Z,99.90
2018-09-09T05:57:35.162Z,99.90
2018-09-09T06:00:03.652Z,99.90
2018-09-09T06:02:32.061Z,99.90
2018-09-09T06:05:00.548Z,99.90
2018-09-09T06:07:28.971Z,99.90
2018-09-09T06:09:57.356Z,99.90
2018-09-09T06:12:25.777Z,99.90
2018-09-09T06:14:54.260Z,99.90
2018-09-09T06:17:22.688Z,99.90
2018-09-09T06:19:51.810Z,99.90
2018-09-09T06:22:20.203Z,99.90
2018-09-09T06:24:48.610Z,99.90
2018-09-09T06:27:17.264Z,99.90
2018-09-09T06:29:45.686Z,99.90
2018-09-09T06:32:14.087Z,99.90
2018-09-09T06:34:42.484Z,99.90
2018-09-09T06:37:11.054Z,99.90
2018-09-09T06:39:39.522Z,99.90
2018-09-09T06:42:08.000Z,99.90
2018-09-09T06:44:36.405Z,99.90
2018-09-09T06:47:04.791Z,99.90
2018-09-09T06:49:33.781Z,99.90
2018-09-09T06:52:02.278Z,99.90
2018-09-09T06:54:30.667Z,99.90
2018-09-09T06:56:59.098Z,99.90
2018-09-09T06:59:27.549Z,99.90
2018-09-09T07:01:55.920Z,99.90
2018-09-09T07:04:24.405Z,99.90
2018-09-09T07:06:52.909Z,99.90
2018-09-09T07:09:21.299Z,99.90
2018-09-09T07:11:50.365Z,99.90
2018-09-09T07:16:46.781Z,99.90
2018-09-09T07:19:15.221Z,99.90
2018-09-09T07:21:43.687Z,99.90
2018-09-09T07:24:12.087Z,99.90
2018-09-09T07:26:40.576Z,99.90
2018-09-09T07:29:09.025Z,99.90
2018-09-09T07:31:37.460Z,99.90
2018-09-09T07:34:05.914Z,99.90
2018-09-09T07:36:34.485Z,99.90
2018-09-09T07:39:02.941Z,99.90
2018-09-09T07:41:31.529Z,99.90
2018-09-09T07:43:59.952Z,99.90
2018-09-09T07:46:28.349Z,99.90
2018-09-09T07:48:56.750Z,99.90
2018-09-09T07:51:25.208Z,99.90
2018-09-09T07:53:53.609Z,99.90
2018-09-09T07:56:22.040Z,99.90
2018-09-09T07:58:50.590Z,99.90
2018-09-09T08:01:18.987Z,99.90
2018-09-09T08:03:47.659Z,99.90
2018-09-09T08:06:16.034Z,99.90
2018-09-09T08:08:44.455Z,99.90
2018-09-09T08:11:12.916Z,99.90
2018-09-09T08:13:41.302Z,99.90
2018-09-09T08:16:09.760Z,99.90
2018-09-09T08:18:38.155Z,99.90
2018-09-09T08:21:06.568Z,99.90
2018-09-09T08:23:34.974Z,99.90
2018-09-09T08:26:03.364Z,99.90
2018-09-09T08:28:31.798Z,99.90
2018-09-09T08:31:00.246Z,99.90
2018-09-09T08:33:28.654Z,99.90
2018-09-09T08:35:57.076Z,99.90
2018-09-09T08:38:25.493Z,99.90
2018-09-09T08:40:53.912Z,99.90
2018-09-09T08:43:22.382Z,99.90
2018-09-09T08:45:51.002Z,99.90
2018-09-09T08:48:19.418Z,99.90
2018-09-09T08:50:47.830Z,99.90
2018-09-09T08:53:16.264Z,99.90
2018-09-09T08:55:44.640Z,99.90
2018-09-09T08:58:13.094Z,99.90
2018-09-09T09:00:41.607Z,99.90
2018-09-09T09:03:10.044Z,99.90
2018-09-09T09:05:38.459Z,99.90
2018-09-09T09:08:07.039Z,99.90
2018-09-09T09:10:35.438Z,99.90
2018-09-09T09:13:03.826Z,99.90
2018-09-09T09:15:32.336Z,99.90
2018-09-09T09:18:00.774Z,99.90
2018-09-09T09:20:29.169Z,99.90
2018-09-09T09:22:57.684Z,99.90
2018-09-09T09:25:26.146Z,99.90
2018-09-09T09:27:54.624Z,99.90
2018-09-09T09:30:23.122Z,99.90
2018-09-09T09:32:51.580Z,99.90
2018-09-09T09:35:20.050Z,99.90
2018-09-09T09:37:48.500Z,99.90
2018-09-09T09:40:16.942Z,99.90
2018-09-09T09:42:45.396Z,99.90
2018-09-09T09:45:13.892Z,99.90
2018-09-09T09:47:42.347Z,99.90
2018-09-09T09:50:10.854Z,99.90
2018-09-09T09:52:39.306Z,99.90
2018-09-09T09:55:08.064Z,98.50
2018-09-09T09:57:36.447Z,98.40
2018-09-09T10:00:05.329Z,98.40
2018-09-09T10:02:33.752Z,96.30
2018-09-09T10:05:02.554Z,95.70
2018-09-09T10:07:31.023Z,93.90
2018-09-09T10:09:59.487Z,93.70
2018-09-09T10:12:27.978Z,95.10
2018-09-09T10:14:56.428Z,95.30
2018-09-09T10:17:24.943Z,94.80
2018-09-09T10:19:53.389Z,93.50
2018-09-09T10:22:21.858Z,93.10
2018-09-09T10:24:50.315Z,93.30
2018-09-09T10:27:18.741Z,90.40
2018-09-09T10:29:47.167Z,91.40
2018-09-09T10:32:15.619Z,92.00
2018-09-09T10:34:44.055Z,92.40
2018-09-09T10:37:12.508Z,93.50
2018-09-09T10:39:40.953Z,92.70
2018-09-09T10:42:09.361Z,89.30
2018-09-09T10:44:37.785Z,86.50
2018-09-09T10:47:06.391Z,85.30
2018-09-09T10:49:34.845Z,89.00
2018-09-09T10:52:03.300Z,86.00
2018-09-09T10:54:31.720Z,86.80
2018-09-09T10:57:00.217Z,84.60
2018-09-09T10:59:28.701Z,84.00
2018-09-09T11:01:57.169Z,83.40
2018-09-09T11:04:25.624Z,83.60
2018-09-09T11:06:54.251Z,82.60
2018-09-09T11:09:22.861Z,82.00
2018-09-09T11:11:51.348Z,78.40
2018-09-09T11:14:19.859Z,83.20
2018-09-09T11:16:48.272Z,84.70
2018-09-09T11:19:16.699Z,82.70
2018-09-09T11:21:45.154Z,82.60
2018-09-09T11:24:13.699Z,86.40
2018-09-09T11:26:42.117Z,81.20
2018-09-09T11:29:10.538Z,82.10
2018-09-09T11:31:38.991Z,81.70
2018-09-09T11:34:07.788Z,80.40
2018-09-09T11:36:36.276Z,79.80
2018-09-09T11:39:06.816Z,80.20
2018-09-09T11:41:35.369Z,81.90
2018-09-09T11:44:03.875Z,86.00
2018-09-09T11:46:32.629Z,85.00
2018-09-09T11:49:01.372Z,87.50
2018-09-09T11:51:29.819Z,85.50
2018-09-09T11:53:58.302Z,83.30
2018-09-09T11:56:27.068Z,86.10
2018-09-09T11:58:55.830Z,84.20
2018-09-09T12:01:24.384Z,86.40
2018-09-09T12:03:52.799Z,88.70
2018-09-09T12:06:21.260Z,81.10
2018-09-09T12:08:49.859Z,78.00
2018-09-09T12:11:18.401Z,78.00
2018-09-09T12:13:46.924Z,81.10
2018-09-09T12:16:15.375Z,85.80
2018-09-09T12:18:43.926Z,82.70
2018-09-09T12:21:12.408Z,79.00
2018-09-09T12:23:40.886Z,79.80
2018-09-09T12:26:09.304Z,79.50
2018-09-09T12:28:37.765Z,82.30
2018-09-09T12:31:06.270Z,77.30
2018-09-09T12:33:34.708Z,74.00
2018-09-09T12:36:03.259Z,74.60
2018-09-09T12:38:31.714Z,75.40
2018-09-09T12:41:00.168Z,77.00
2018-09-09T12:43:33.882Z,79.50
2018-09-09T12:46:07.658Z,78.60
2018-09-09T12:48:41.475Z,78.70
2018-09-09T12:51:09.938Z,79.80
2018-09-09T12:53:38.413Z,82.70
2018-09-09T12:56:06.897Z,81.80
2018-09-09T12:58:35.349Z,83.10
2018-09-09T13:01:03.787Z,80.40
2018-09-09T13:03:32.276Z,82.20
2018-09-09T13:06:00.693Z,81.90
2018-09-09T13:08:29.211Z,85.80
2018-09-09T13:10:57.625Z,86.20
2018-09-09T13:13:26.072Z,86.20
2018-09-09T13:15:54.590Z,86.40
2018-09-09T13:18:23.030Z,87.10
2018-09-09T13:20:51.435Z,87.50
2018-09-09T13:23:19.906Z,89.50
2018-09-09T13:25:48.337Z,87.20
2018-09-09T13:28:16.777Z,89.80
2018-09-09T13:30:45.182Z,91.00
2018-09-09T13:33:13.647Z,89.10
2018-09-09T13:35:42.122Z,90.00
2018-09-09T13:38:10.532Z,90.10
2018-09-09T13:40:39.019Z,88.90
2018-09-09T13:43:07.519Z,90.60
2018-09-09T13:45:35.957Z,89.90
2018-09-09T13:48:04.540Z,91.20
2018-09-09T13:50:32.935Z,92.40
2018-09-09T13:53:01.396Z,91.70
2018-09-09T13:55:29.822Z,90.40
2018-09-09T13:57:58.235Z,92.90
2018-09-09T14:00:26.676Z,90.40
2018-09-09T14:02:55.114Z,92.30
2018-09-09T14:05:23.553Z,87.80
2018-09-09T14:07:52.003Z,90.00
2018-09-09T14:10:20.431Z,91.30
2018-09-09T14:12:48.861Z,90.70
2018-09-09T14:15:17.465Z,90.30
2018-09-09T14:17:45.938Z,91.20
2018-09-09T14:20:14.398Z,90.70
2018-09-09T14:22:42.834Z,91.10
2018-09-09T14:25:11.292Z,88.20
2018-09-09T14:27:39.745Z,90.20
2018-09-09T14:30:08.812Z,88.70
2018-09-09T14:32:37.294Z,90.30
2018-09-09T14:35:05.742Z,85.90
2018-09-09T14:37:34.195Z,87.20
2018-09-09T14:40:02.681Z,88.80
2018-09-09T14:42:31.455Z,87.20
2018-09-09T14:44:59.919Z,85.90
2018-09-09T14:47:28.458Z,87.50
2018-09-09T14:49:56.913Z,90.50
2018-09-09T14:52:25.392Z,90.80
2018-09-09T14:54:53.889Z,86.60
2018-09-09T14:57:22.404Z,84.20
2018-09-09T14:59:51.757Z,85.60
2018-09-09T15:02:20.293Z,92.10
2018-09-09T15:04:48.755Z,83.50
2018-09-09T15:07:17.207Z,87.80
2018-09-09T15:09:45.667Z,84.30
2018-09-09T15:12:14.122Z,86.70
2018-09-09T15:14:42.651Z,89.30
2018-09-09T15:17:11.151Z,87.20
2018-09-09T15:19:39.601Z,86.70
2018-09-09T15:22:08.165Z,88.00
2018-09-09T15:24:36.625Z,86.40
2018-09-09T15:27:05.989Z,86.30
2018-09-09T15:29:34.435Z,87.80
2018-09-09T15:32:03.513Z,90.80
2018-09-09T15:34:31.944Z,90.90
2018-09-09T15:37:00.481Z,89.60
2018-09-09T15:39:29.211Z,88.20
2018-09-09T15:41:57.650Z,90.90
2018-09-09T15:44:26.098Z,88.30
2018-09-09T15:46:54.525Z,85.80
2018-09-09T15:49:22.965Z,86.50
2018-09-09T15:51:51.465Z,89.40
2018-09-09T15:54:19.900Z,91.90
2018-09-09T15:56:48.946Z,90.40
2018-09-09T15:59:17.392Z,90.50
2018-09-09T16:01:45.861Z,91.90
2018-09-09T16:04:14.309Z,90.10
2018-09-09T16:06:43.110Z,91.30
2018-09-09T16:09:12.082Z,90.20
2018-09-09T16:11:40.487Z,90.90
2018-09-09T16:14:09.384Z,91.00
2018-09-09T16:16:37.890Z,90.60
2018-09-09T16:19:06.433Z,88.80
2018-09-09T16:21:35.028Z,90.60
2018-09-09T16:24:03.501Z,88.60
2018-09-09T16:26:31.970Z,89.60
2018-09-09T16:29:00.461Z,89.20
2018-09-09T16:31:29.318Z,90.80
2018-09-09T16:33:57.770Z,93.10
2018-09-09T16:36:26.240Z,92.30
2018-09-09T16:38:55.074Z,94.30
2018-09-09T16:41:23.642Z,93.90
2018-09-09T16:43:52.098Z,93.80
2018-09-09T16:46:20.612Z,92.50
2018-09-09T16:48:49.383Z,92.80
2018-09-09T16:51:17.846Z,93.90
2018-09-09T16:53:46.324Z,93.00
2018-09-09T16:56:15.134Z,92.60
2018-09-09T16:58:43.562Z,92.10
2018-09-09T17:01:12.083Z,92.70
2018-09-09T17:03:40.643Z,93.10
2018-09-09T17:06:09.131Z,92.50
2018-09-09T17:08:37.611Z,93.10
2018-09-09T17:11:06.394Z,93.40
2018-09-09T17:13:34.835Z,92.50
2018-09-09T17:16:03.343Z,92.70
2018-09-09T17:18:31.846Z,96.90
2018-09-09T17:21:00.369Z,94.70
2018-09-09T17:23:29.885Z,95.70
2018-09-09T17:25:58.381Z,96.30
2018-09-09T17:28:27.860Z,97.10
2018-09-09T17:30:56.621Z,98.80
2018-09-09T17:33:25.137Z,96.20
2018-09-09T17:35:53.643Z,95.90
2018-09-09T17:38:22.553Z,95.90
2018-09-09T17:40:51.075Z,99.90
2018-09-09T17:43:19.915Z,99.90
2018-09-09T17:45:48.493Z,99.90
2018-09-09T17:48:17.006Z,99.90
2018-09-09T17:50:46.270Z,99.90
2018-09-09T17:53:16.487Z,99.90
2018-09-09T17:55:45.028Z,99.90
2018-09-09T17:58:13.617Z,99.90
2018-09-09T18:00:42.248Z,99.90
2018-09-09T18:03:11.466Z,99.90
2018-09-09T18:08:08.632Z,99.90
2018-09-09T18:10:37.471Z,99.90
2018-09-09T18:13:06.100Z,99.90
2018-09-09T18:15:36.080Z,99.90
2018-09-09T18:18:08.623Z,99.90
2018-09-09T18:23:05.827Z,99.90
2018-09-09T18:25:36.089Z,99.90
2018-09-09T18:28:05.738Z,99.90
2018-09-09T18:30:34.720Z,99.90
2018-09-09T18:33:03.226Z,99.90
2018-09-09T18:35:32.179Z,99.90
2018-09-09T18:38:00.877Z,99.90
2018-09-09T18:40:30.532Z,99.90
2018-09-09T18:42:59.100Z,99.90
2018-09-09T18:45:29.307Z,99.90
2018-09-09T18:47:58.194Z,99.90
2018-09-09T18:50:27.436Z,99.90
2018-09-09T18:52:57.119Z,99.90
2018-09-09T18:55:26.938Z,99.90
2018-09-09T18:57:56.427Z,99.90
2018-09-09T19:00:26.993Z,99.90
2018-09-09T19:02:56.250Z,99.90
2018-09-09T19:05:29.863Z,99.90
2018-09-09T19:07:58.636Z,99.90
2018-09-09T19:10:27.552Z,99.90
2018-09-09T19:12:56.240Z,99.90
2018-09-09T19:15:25.243Z,99.90
2018-09-09T19:17:55.166Z,99.90
2018-09-09T19:20:24.459Z,99.90
2018-09-09T19:22:53.404Z,99.90
2018-09-09T19:25:23.449Z,99.90
2018-09-09T19:27:52.374Z,99.90
2018-09-09T19:30:20.905Z,99.90
2018-09-09T19:32:54.970Z,99.90
2018-09-09T19:35:23.758Z,99.90
2018-09-09T19:37:52.879Z,99.90
2018-09-09T19:40:26.017Z,99.90
2018-09-09T19:42:55.116Z,99.90
2018-09-09T19:45:24.247Z,99.90
2018-09-09T19:47:53.222Z,99.90
2018-09-09T19:50:23.175Z,99.90
2018-09-09T19:52:52.435Z,99.90
2018-09-09T19:55:22.806Z,99.90
2018-09-09T19:57:51.843Z,99.90
2018-09-09T20:00:20.469Z,99.90
2018-09-09T20:02:49.924Z,99.90
2018-09-09T20:05:18.854Z,99.90
2018-09-09T20:07:47.795Z,99.90
2018-09-09T20:10:21.355Z,99.90
2018-09-09T20:12:50.816Z,99.90
2018-09-09T20:15:20.119Z,99.90
2018-09-09T20:20:17.069Z,99.90
2018-09-09T20:22:45.677Z,99.90
2018-09-09T20:25:14.218Z,99.90
2018-09-09T20:27:42.806Z,99.90
2018-09-09T20:30:12.242Z,99.90
2018-09-09T20:32:41.012Z,99.90
2018-09-09T20:35:09.614Z,99.90
2018-09-09T20:37:38.230Z,99.90
2018-09-09T20:40:06.796Z,99.90
2018-09-09T20:42:35.888Z,99.90
2018-09-09T20:45:04.760Z,99.90
2018-09-09T20:47:33.678Z,99.90
2018-09-09T20:50:02.524Z,99.90
2018-09-09T20:52:31.377Z,99.90
2018-09-09T20:55:00.048Z,99.90
2018-09-09T20:57:28.606Z,99.90
2018-09-09T20:59:58.224Z,99.90
2018-09-09T21:02:26.830Z,99.90
2018-09-09T21:04:55.475Z,99.90
2018-09-09T21:09:52.653Z,99.90
2018-09-09T21:12:21.146Z,99.90
2018-09-09T21:14:49.570Z,99.90
2018-09-09T21:17:19.036Z,99.90
2018-09-09T21:19:47.544Z,99.90
2018-09-09T21:22:16.316Z,99.90
2018-09-09T21:24:44.831Z,99.90
2018-09-09T21:27:13.263Z,99.90
2018-09-09T21:29:41.793Z,99.90
2018-09-09T21:32:10.220Z,99.90
2018-09-09T21:34:38.683Z,99.90
2018-09-09T21:37:07.126Z,99.90
2018-09-09T21:39:35.564Z,99.90
2018-09-09T21:42:04.029Z,99.90
2018-09-09T21:44:32.738Z,99.90
2018-09-09T21:47:01.148Z,99.90
2018-09-09T21:49:29.639Z,99.90
2018-09-09T21:51:58.037Z,99.90
2018-09-09T21:54:26.425Z,99.90
2018-09-09T21:56:54.863Z,99.90
2018-09-09T21:59:23.241Z,99.90
2018-09-09T22:01:57.149Z,99.90
2018-09-09T22:04:25.555Z,99.90
2018-09-09T22:06:53.999Z,99.90
2018-09-09T22:09:22.433Z,99.90
2018-09-09T22:11:50.812Z,99.90
2018-09-09T22:14:19.293Z,99.90
2018-09-09T22:16:47.692Z,99.90
2018-09-09T22:19:16.225Z,99.90
2018-09-09T22:21:47.631Z,99.90
2018-09-09T22:24:16.907Z,99.90
2018-09-09T22:26:45.619Z,99.90
2018-09-09T22:29:14.019Z,99.90
2018-09-09T22:31:42.455Z,99.90
2018-09-09T22:34:10.835Z,99.90
2018-09-09T22:36:39.291Z,99.90
2018-09-09T22:39:09.176Z,99.90
2018-09-09T22:41:38.801Z,99.90
2018-09-09T22:44:08.485Z,99.90
2018-09-09T22:46:36.870Z,99.90
2018-09-09T22:49:05.281Z,99.90
2018-09-09T22:51:33.707Z,99.90
2018-09-09T22:54:02.224Z,99.90
2018-09-09T22:56:30.660Z,99.90
2018-09-09T22:58:59.195Z,99.90
2018-09-09T23:01:27.660Z,99.90
2018-09-09T23:03:56.079Z,99.90
2018-09-09T23:06:24.475Z,99.90
2018-09-09T23:08:52.901Z,99.90
2018-09-09T23:11:21.312Z,99.90
2018-09-09T23:13:49.797Z,99.90
2018-09-09T23:16:18.220Z,99.90
2018-09-09T23:18:46.633Z,99.90
2018-09-09T23:21:15.049Z,99.90
2018-09-09T23:23:43.461Z,99.90
2018-09-09T23:26:11.864Z,99.90
2018-09-09T23:28:40.273Z,99.90
2018-09-09T23:31:08.677Z,99.90
2018-09-09T23:33:37.129Z,99.90
2018-09-09T23:36:05.817Z,99.90
2018-09-09T23:38:34.083Z,99.90
2018-09-09T23:41:02.481Z,99.90
2018-09-09T23:43:30.873Z,99.90
2018-09-09T23:45:59.273Z,99.90
2018-09-09T23:48:27.661Z,99.90
2018-09-09T23:53:24.223Z,99.90
2018-09-09T23:55:52.602Z,99.90
2018-09-09T23:58:21.058Z,99.90
